createdAt,value
2023-03-04T00:03:44.438Z,-2.12
2023-03-04T00:06:31.588Z,-2.14
2023-03-04T00:09:18.724Z,-2.02
2023-03-04T00:12:08.809Z,-2.12
2023-03-04T00:14:55.892Z,-2.08
2023-03-04T00:17:43.032Z,-1.91
2023-03-04T00:20:30.109Z,-2.08
2023-03-04T00:23:17.231Z,-2.13
2023-03-04T00:26:04.414Z,-2.06
2023-03-04T00:28:51.460Z,-2.14
2023-03-04T00:31:38.693Z,-2.16
2023-03-04T00:34:25.775Z,-2.26
2023-03-04T00:37:12.821Z,-2.20
2023-03-04T00:39:59.870Z,-2.24
2023-03-04T00:42:46.928Z,-2.18
2023-03-04T00:45:34.067Z,-2.15
2023-03-04T00:48:21.173Z,-2.21
2023-03-04T00:51:08.337Z,-2.12
2023-03-04T00:53:55.436Z,-2.24
2023-03-04T00:56:42.540Z,-2.30
2023-03-04T00:59:29.570Z,-2.35
2023-03-04T01:02:16.671Z,-2.16
2023-03-04T01:05:04.349Z,-2.20
2023-03-04T01:07:51.513Z,-2.31
2023-03-04T01:10:38.545Z,-2.37
2023-03-04T01:13:25.708Z,-2.46
2023-03-04T01:16:13.124Z,-2.52
2023-03-04T01:19:00.271Z,-2.63
2023-03-04T01:21:47.465Z,-2.53
2023-03-04T01:24:34.893Z,-2.61
2023-03-04T01:27:21.999Z,-2.37
2023-03-04T01:30:10.351Z,-2.00
2023-03-04T01:32:57.496Z,-1.81
2023-03-04T01:35:44.591Z,-1.51
2023-03-04T01:38:31.708Z,-1.27
2023-03-04T01:41:24.385Z,-1.18
2023-03-04T01:44:12.554Z,-1.09
2023-03-04T01:46:59.777Z,-1.09
2023-03-04T01:49:54.733Z,-0.98
2023-03-04T01:52:43.118Z,-0.97
2023-03-04T01:55:30.780Z,-0.81
2023-03-04T01:58:18.046Z,-0.77
2023-03-04T02:01:05.092Z,-0.64
2023-03-04T02:03:52.291Z,-0.57
2023-03-04T02:06:41.254Z,-0.55
2023-03-04T02:09:30.067Z,-0.36
2023-03-04T02:12:18.811Z,-0.33
2023-03-04T02:15:07.005Z,-0.18
2023-03-04T02:17:54.243Z,-0.13
2023-03-04T02:23:25.588Z,0.06
2023-03-04T02:26:18.775Z,0.14
2023-03-04T02:29:05.978Z,0.10
2023-03-04T02:31:54.601Z,0.12
2023-03-04T02:34:48.971Z,0.25
2023-03-04T02:37:36.074Z,0.24
2023-03-04T02:40:33.324Z,0.37
2023-03-04T02:43:20.547Z,0.42
2023-03-04T02:46:10.847Z,0.44
2023-03-04T02:48:58.072Z,0.30
2023-03-04T02:51:45.218Z,0.57
2023-03-04T02:54:32.656Z,0.67
2023-03-04T02:57:19.702Z,0.68
2023-03-04T03:00:07.644Z,0.90
2023-03-04T03:02:57.108Z,1.06
2023-03-04T03:05:44.638Z,1.14
2023-03-04T03:08:31.778Z,1.26
2023-03-04T03:11:18.807Z,1.21
2023-03-04T03:14:06.027Z,1.27
2023-03-04T03:16:53.202Z,1.21
2023-03-04T03:19:40.294Z,1.23
2023-03-04T03:22:27.367Z,1.14
2023-03-04T03:25:15.738Z,1.34
2023-03-04T03:28:02.872Z,1.30
2023-03-04T03:30:49.957Z,1.21
2023-03-04T03:33:37.103Z,1.10
2023-03-04T03:36:24.200Z,1.12
2023-03-04T03:39:11.498Z,1.18
2023-03-04T03:41:58.519Z,1.07
2023-03-04T03:44:45.577Z,0.98
2023-03-04T03:47:32.664Z,1.00
2023-03-04T03:50:19.767Z,0.95
2023-03-04T03:53:06.784Z,1.07
2023-03-04T03:55:53.847Z,0.97
2023-03-04T03:58:40.942Z,1.05
2023-03-04T04:01:28.077Z,0.98
2023-03-04T04:04:15.227Z,1.05
2023-03-04T04:07:02.615Z,0.82
2023-03-04T04:09:49.705Z,0.73
2023-03-04T04:12:36.788Z,0.72
2023-03-04T04:15:24.006Z,0.59
2023-03-04T04:18:11.066Z,0.77
2023-03-04T04:20:58.184Z,0.56
2023-03-04T04:23:45.257Z,0.50
2023-03-04T04:26:32.314Z,0.44
2023-03-04T04:29:19.605Z,0.38
2023-03-04T04:32:07.389Z,0.55
2023-03-04T04:34:54.532Z,0.44
2023-03-04T04:37:41.572Z,0.56
2023-03-04T04:40:28.643Z,0.56
2023-03-04T04:43:15.713Z,0.38
2023-03-04T04:46:02.812Z,0.48
2023-03-04T04:48:50.327Z,0.42
2023-03-04T04:51:38.905Z,0.43
2023-03-04T04:54:26.030Z,0.38
2023-03-04T04:57:13.128Z,0.43
2023-03-04T05:00:00.338Z,0.71
2023-03-04T05:02:48.002Z,0.53
2023-03-04T05:05:35.063Z,0.80
2023-03-04T05:08:22.141Z,0.71
2023-03-04T05:11:09.265Z,0.66
2023-03-04T05:13:56.468Z,0.72
2023-03-04T05:16:43.501Z,0.58
2023-03-04T05:19:30.634Z,0.47
2023-03-04T05:22:17.770Z,0.27
2023-03-04T05:25:05.734Z,0.57
2023-03-04T05:27:52.806Z,0.61
2023-03-04T05:30:41.421Z,0.67
2023-03-04T05:33:28.547Z,0.50
2023-03-04T05:36:15.706Z,0.74
2023-03-04T05:39:02.901Z,0.75
2023-03-04T05:41:49.968Z,0.85
2023-03-04T05:44:37.042Z,0.73
2023-03-04T05:47:24.123Z,0.91
2023-03-04T05:50:11.873Z,0.75
2023-03-04T05:53:00.508Z,0.63
2023-03-04T05:55:47.983Z,0.78
2023-03-04T05:58:35.133Z,0.74
2023-03-04T06:01:22.175Z,0.74
2023-03-04T06:04:09.320Z,0.86
2023-03-04T06:06:56.427Z,0.96
2023-03-04T06:09:45.332Z,0.88
2023-03-04T06:12:32.415Z,0.86
2023-03-04T06:15:19.598Z,0.74
2023-03-04T06:18:07.861Z,0.83
2023-03-04T06:20:59.153Z,0.90
2023-03-04T06:23:47.205Z,0.83
2023-03-04T06:26:34.290Z,0.97
2023-03-04T06:29:21.507Z,0.94
2023-03-04T06:32:08.600Z,0.92
2023-03-04T06:34:55.814Z,0.85
2023-03-04T06:37:44.010Z,0.99
2023-03-04T06:40:31.061Z,0.97
2023-03-04T06:43:18.731Z,1.04
2023-03-04T06:46:07.775Z,1.01
2023-03-04T06:48:54.912Z,1.18
2023-03-04T06:51:42.016Z,1.21
2023-03-04T06:54:29.798Z,1.27
2023-03-04T06:57:16.877Z,1.19
2023-03-04T07:00:04.541Z,1.29
2023-03-04T07:02:55.104Z,1.41
2023-03-04T07:05:43.590Z,1.53
2023-03-04T07:08:30.654Z,1.62
2023-03-04T07:11:20.248Z,1.59
2023-03-04T07:14:07.296Z,1.44
2023-03-04T07:16:54.683Z,1.69
2023-03-04T07:19:42.084Z,1.79
2023-03-04T07:22:29.375Z,1.88
2023-03-04T07:25:18.127Z,1.85
2023-03-04T07:28:05.216Z,1.83
2023-03-04T07:30:52.323Z,1.99
2023-03-04T07:33:39.592Z,2.09
2023-03-04T07:36:27.050Z,2.12
2023-03-04T07:39:14.294Z,2.16
2023-03-04T07:42:01.346Z,2.16
2023-03-04T07:44:48.390Z,2.26
2023-03-04T07:47:35.494Z,2.20
2023-03-04T07:50:23.494Z,2.46
2023-03-04T07:53:10.596Z,2.40
2023-03-04T07:55:57.768Z,2.40
2023-03-04T07:58:45.329Z,2.66
2023-03-04T08:01:37.406Z,2.76
2023-03-04T08:04:24.535Z,2.80
2023-03-04T08:07:11.618Z,2.72
2023-03-04T08:09:58.724Z,2.79
2023-03-04T08:12:46.890Z,3.04
2023-03-04T08:15:35.359Z,3.38
2023-03-04T08:18:22.534Z,3.50
2023-03-04T08:21:11.203Z,3.82
2023-03-04T08:24:02.573Z,4.12
2023-03-04T08:26:50.814Z,4.10
2023-03-04T08:29:37.991Z,4.32
2023-03-04T08:32:25.176Z,4.32
2023-03-04T08:35:12.354Z,4.59
2023-03-04T08:38:02.346Z,4.94
2023-03-04T08:40:56.991Z,5.30
2023-03-04T08:43:44.257Z,5.54
2023-03-04T08:46:31.608Z,5.70
2023-03-04T08:49:18.801Z,5.67
2023-03-04T08:52:06.788Z,6.05
2023-03-04T08:54:54.136Z,6.18
2023-03-04T08:57:41.263Z,6.16
2023-03-04T09:00:28.386Z,5.81
2023-03-04T09:03:16.647Z,6.28
2023-03-04T09:06:04.762Z,6.52
2023-03-04T09:08:51.929Z,6.47
2023-03-04T09:11:42.016Z,6.78
2023-03-04T09:14:29.029Z,6.99
2023-03-04T09:17:16.096Z,7.27
2023-03-04T09:20:04.656Z,7.09
2023-03-04T09:22:51.751Z,6.91
2023-03-04T09:25:39.671Z,7.39
2023-03-04T09:28:27.008Z,7.69
2023-03-04T09:31:15.222Z,8.07
2023-03-04T09:34:02.358Z,8.30
2023-03-04T09:36:49.452Z,8.32
2023-03-04T09:39:36.988Z,8.26
2023-03-04T09:42:55.930Z,8.46
2023-03-04T09:46:00.249Z,7.78
2023-03-04T09:48:51.066Z,7.91
2023-03-04T09:51:44.973Z,7.96
2023-03-04T09:54:45.325Z,8.37
2023-03-04T09:57:46.514Z,8.14
2023-03-04T10:00:44.232Z,7.80
2023-03-04T10:03:47.909Z,7.41
2023-03-04T10:06:39.366Z,7.54
2023-03-04T10:09:30.381Z,7.74
2023-03-04T10:12:22.304Z,8.22
2023-03-04T10:15:44.177Z,8.23
2023-03-04T10:18:41.381Z,8.73
2023-03-04T10:21:38.385Z,8.97
2023-03-04T10:24:29.462Z,8.56
2023-03-04T10:27:20.086Z,8.51
2023-03-04T10:30:18.965Z,8.39
2023-03-04T10:33:20.145Z,8.28
2023-03-04T10:36:31.750Z,7.54
2023-03-04T10:39:29.825Z,7.89
2023-03-04T10:42:17.011Z,7.91
2023-03-04T10:45:04.566Z,8.31
2023-03-04T10:47:55.948Z,7.88
2023-03-04T10:50:43.288Z,8.16
2023-03-04T10:53:34.101Z,8.29
2023-03-04T10:56:45.628Z,7.93
2023-03-04T10:59:40.985Z,8.14
2023-03-04T11:02:36.405Z,8.19
2023-03-04T11:05:25.858Z,8.08
2023-03-04T11:08:22.427Z,8.15
2023-03-04T11:11:34.700Z,7.88
2023-03-04T11:14:21.736Z,7.87
2023-03-04T11:17:23.780Z,8.37
2023-03-04T11:20:17.468Z,7.93
2023-03-04T11:23:11.775Z,8.25
2023-03-04T11:26:29.076Z,8.00
2023-03-04T11:29:26.613Z,8.05
2023-03-04T11:32:28.091Z,8.45
2023-03-04T11:35:38.700Z,8.29
2023-03-04T11:38:50.167Z,8.56
2023-03-04T11:41:41.854Z,8.68
2023-03-04T11:44:30.881Z,8.56
2023-03-04T11:47:45.891Z,8.17
2023-03-04T11:50:49.044Z,8.22
2023-03-04T11:53:59.803Z,8.34
2023-03-04T11:56:53.847Z,8.36
2023-03-04T12:00:08.862Z,8.61
2023-03-04T12:03:14.916Z,8.58
2023-03-04T12:06:34.438Z,8.61
2023-03-04T12:09:30.115Z,8.80
2023-03-04T12:12:27.257Z,8.77
2023-03-04T12:15:55.131Z,8.96
2023-03-04T12:18:57.619Z,8.84
2023-03-04T12:22:07.070Z,8.97
2023-03-04T12:25:17.998Z,8.81
2023-03-04T12:28:27.973Z,9.00
2023-03-04T12:31:34.054Z,9.38
2023-03-04T12:34:52.830Z,9.34
2023-03-04T12:38:05.024Z,9.28
2023-03-04T12:40:55.129Z,9.33
2023-03-04T12:43:45.062Z,9.06
2023-03-04T12:46:44.433Z,9.42
2023-03-04T12:50:02.646Z,9.48
2023-03-04T12:53:24.138Z,9.31
2023-03-04T12:56:33.964Z,9.35
2023-03-04T12:59:24.172Z,9.48
2023-03-04T13:02:13.877Z,9.62
2023-03-04T13:05:26.807Z,9.34
2023-03-04T13:08:19.701Z,9.33
2023-03-04T13:11:28.569Z,9.39
2023-03-04T13:14:17.515Z,9.45
2023-03-04T13:17:43.659Z,9.59
2023-03-04T13:20:31.053Z,9.47
2023-03-04T13:23:29.921Z,9.56
2023-03-04T13:26:21.116Z,9.66
2023-03-04T13:29:14.281Z,9.62
2023-03-04T13:32:10.709Z,9.66
2023-03-04T13:34:58.309Z,9.67
2023-03-04T13:37:58.294Z,9.61
2023-03-04T13:40:45.350Z,9.60
2023-03-04T13:43:44.009Z,9.62
2023-03-04T13:46:42.852Z,9.53
2023-03-04T13:49:30.074Z,9.55
2023-03-04T13:52:44.401Z,9.61
2023-03-04T13:55:41.195Z,9.78
2023-03-04T13:58:28.397Z,9.98
2023-03-04T14:01:28.777Z,10.11
2023-03-04T14:04:16.222Z,10.38
2023-03-04T14:07:37.313Z,10.47
2023-03-04T14:10:25.314Z,10.43
2023-03-04T14:13:12.480Z,10.32
2023-03-04T14:16:00.562Z,10.48
2023-03-04T14:19:01.306Z,10.13
2023-03-04T14:21:48.518Z,10.20
2023-03-04T14:24:35.781Z,10.36
2023-03-04T14:27:23.028Z,10.55
2023-03-04T14:30:28.974Z,10.74
2023-03-04T14:33:25.620Z,10.50
2023-03-04T14:36:24.359Z,10.29
2023-03-04T14:39:18.260Z,10.66
2023-03-04T14:42:11.204Z,10.47
2023-03-04T14:45:00.851Z,10.25
2023-03-04T14:47:49.099Z,10.08
2023-03-04T14:50:37.782Z,9.83
2023-03-04T14:53:34.013Z,9.95
2023-03-04T14:56:29.265Z,10.12
2023-03-04T14:59:19.529Z,10.00
2023-03-04T15:02:42.013Z,10.17
2023-03-04T15:05:32.732Z,9.65
2023-03-04T15:08:29.434Z,9.81
2023-03-04T15:11:27.336Z,9.64
2023-03-04T15:14:50.271Z,9.45
2023-03-04T15:17:42.895Z,9.41
2023-03-04T15:20:32.184Z,9.46
2023-03-04T15:23:19.365Z,9.34
2023-03-04T15:26:10.224Z,9.51
2023-03-04T15:28:57.583Z,9.30
2023-03-04T15:31:48.403Z,9.10
2023-03-04T15:34:35.662Z,9.16
2023-03-04T15:37:27.610Z,9.16
2023-03-04T15:40:19.050Z,8.66
2023-03-04T15:43:07.716Z,8.83
2023-03-04T15:45:55.094Z,8.40
2023-03-04T15:48:42.433Z,8.28
2023-03-04T15:51:30.633Z,8.29
2023-03-04T15:54:18.104Z,7.95
2023-03-04T15:57:17.415Z,8.00
2023-03-04T16:00:05.299Z,8.05
2023-03-04T16:02:52.571Z,7.85
2023-03-04T16:05:40.039Z,7.78
2023-03-04T16:08:27.957Z,7.88
2023-03-04T16:11:22.161Z,7.86
2023-03-04T16:14:11.600Z,7.71
2023-03-04T16:16:59.112Z,7.64
2023-03-04T16:19:46.953Z,7.63
2023-03-04T16:22:34.494Z,7.55
2023-03-04T16:25:23.075Z,7.53
2023-03-04T16:28:12.872Z,7.30
2023-03-04T16:31:00.249Z,7.27
2023-03-04T16:33:48.410Z,7.24
2023-03-04T16:36:36.217Z,7.10
2023-03-04T16:39:26.135Z,7.06
2023-03-04T16:42:20.043Z,6.95
2023-03-04T16:45:16.202Z,6.73
2023-03-04T16:48:03.566Z,6.75
2023-03-04T16:50:51.867Z,6.66
2023-03-04T16:53:40.764Z,6.85
2023-03-04T16:56:29.755Z,6.74
2023-03-04T16:59:17.736Z,6.64
2023-03-04T17:02:13.469Z,6.55
2023-03-04T17:05:01.120Z,6.35
2023-03-04T17:07:48.256Z,6.37
2023-03-04T17:10:35.594Z,6.46
2023-03-04T17:13:23.252Z,6.08
2023-03-04T17:16:13.151Z,6.51
2023-03-04T17:19:00.861Z,6.10
2023-03-04T17:21:48.129Z,5.89
2023-03-04T17:24:35.498Z,6.09
2023-03-04T17:27:23.201Z,5.89
2023-03-04T17:30:13.326Z,5.95
2023-03-04T17:33:01.086Z,5.76
2023-03-04T17:35:49.074Z,5.79
2023-03-04T17:38:45.667Z,5.57
2023-03-04T17:41:36.024Z,5.52
2023-03-04T17:44:24.059Z,5.47
2023-03-04T17:47:12.144Z,5.08
2023-03-04T17:49:59.789Z,5.09
2023-03-04T17:52:48.652Z,5.06
2023-03-04T17:55:36.540Z,5.00
2023-03-04T17:58:25.266Z,4.71
2023-03-04T18:01:20.924Z,4.68
2023-03-04T18:04:09.198Z,4.35
2023-03-04T18:06:56.826Z,4.49
2023-03-04T18:09:44.958Z,4.35
2023-03-04T18:12:33.228Z,4.39
2023-03-04T18:15:21.001Z,4.31
2023-03-04T18:18:08.990Z,4.20
2023-03-04T18:21:02.138Z,4.20
2023-03-04T18:23:49.933Z,4.14
2023-03-04T18:26:37.998Z,3.77
2023-03-04T18:29:26.074Z,3.68
2023-03-04T18:32:14.260Z,3.63
2023-03-04T18:35:02.412Z,3.55
2023-03-04T18:37:50.809Z,3.61
2023-03-04T18:40:43.897Z,3.58
2023-03-04T18:43:31.619Z,3.21
2023-03-04T18:46:29.952Z,3.23
2023-03-04T18:49:22.320Z,3.01
2023-03-04T18:52:10.136Z,2.94
2023-03-04T18:54:59.414Z,2.83
2023-03-04T18:57:51.835Z,2.86
2023-03-04T19:00:40.004Z,2.54
2023-03-04T19:03:28.985Z,2.65
2023-03-04T19:06:17.494Z,2.60
2023-03-04T19:09:07.094Z,2.58
2023-03-04T19:11:55.235Z,2.32
2023-03-04T19:14:43.180Z,2.16
2023-03-04T19:17:33.266Z,1.97
2023-03-04T19:20:21.402Z,1.83
2023-03-04T19:23:10.867Z,1.63
2023-03-04T19:26:00.306Z,1.61
2023-03-04T19:28:48.617Z,1.57
2023-03-04T19:31:41.033Z,1.75
2023-03-04T19:34:29.545Z,1.56
2023-03-04T19:37:18.556Z,1.48
2023-03-04T19:40:08.016Z,1.28
2023-03-04T19:42:56.968Z,1.51
2023-03-04T19:45:53.642Z,1.35
2023-03-04T19:48:43.288Z,1.10
2023-03-04T19:51:33.216Z,1.14
2023-03-04T19:54:20.702Z,0.99
2023-03-04T19:57:08.818Z,0.92
2023-03-04T19:59:56.564Z,0.82
2023-03-04T20:02:46.051Z,0.99
2023-03-04T20:05:35.462Z,0.92
2023-03-04T20:08:24.424Z,1.07
2023-03-04T20:11:15.156Z,1.12
2023-03-04T20:14:05.034Z,1.02
2023-03-04T20:16:53.227Z,0.96
2023-03-04T20:19:41.383Z,0.93
2023-03-04T20:22:29.743Z,0.98
2023-03-04T20:25:19.134Z,1.04
2023-03-04T20:28:07.316Z,1.05
2023-03-04T20:31:09.546Z,1.09
2023-03-04T20:34:02.181Z,1.14
2023-03-04T20:36:50.267Z,1.18
2023-03-04T20:39:38.469Z,1.08
2023-03-04T20:42:26.843Z,1.19
2023-03-04T20:45:16.255Z,1.02
2023-03-04T20:48:04.613Z,1.17
2023-03-04T20:50:52.436Z,1.19
2023-03-04T20:53:40.352Z,1.08
2023-03-04T20:56:28.758Z,1.04
2023-03-04T20:59:18.186Z,0.98
2023-03-04T21:02:07.817Z,0.89
2023-03-04T21:04:56.019Z,0.80
2023-03-04T21:07:44.198Z,1.12
2023-03-04T21:10:35.813Z,0.86
2023-03-04T21:13:26.795Z,0.89
2023-03-04T21:16:16.663Z,0.82
2023-03-04T21:19:06.521Z,0.61
2023-03-04T21:21:56.694Z,0.70
2023-03-04T21:24:45.870Z,0.57
2023-03-04T21:27:33.406Z,0.71
2023-03-04T21:30:21.393Z,0.49
2023-03-04T21:33:18.310Z,0.54
2023-03-04T21:36:06.467Z,0.51
2023-03-04T21:38:54.634Z,0.51
2023-03-04T21:41:42.647Z,0.58
2023-03-04T21:44:45.017Z,0.72
2023-03-04T21:47:35.861Z,0.75
2023-03-04T21:50:25.843Z,0.82
2023-03-04T21:53:13.676Z,0.72
2023-03-04T21:56:01.469Z,0.96
2023-03-04T21:58:49.023Z,0.86
2023-03-04T22:01:36.652Z,0.69
2023-03-04T22:04:24.107Z,0.72
2023-03-04T22:07:11.167Z,0.60
2023-03-04T22:09:59.625Z,0.78
2023-03-04T22:12:46.735Z,0.58
2023-03-04T22:15:33.936Z,0.76
2023-03-04T22:18:21.066Z,0.75
2023-03-04T22:21:13.369Z,0.91
2023-03-04T22:24:00.547Z,0.87
2023-03-04T22:26:47.734Z,0.82
2023-03-04T22:29:37.123Z,0.87
2023-03-04T22:32:24.315Z,0.79
2023-03-04T22:35:11.829Z,0.97
2023-03-04T22:37:58.947Z,0.80
2023-03-04T22:40:46.006Z,0.84
2023-03-04T22:43:33.118Z,0.85
2023-03-04T22:46:25.874Z,0.86
2023-03-04T22:49:14.216Z,0.94
2023-03-04T22:52:01.429Z,1.02
2023-03-04T22:54:48.647Z,0.95
2023-03-04T22:57:35.694Z,0.86
2023-03-04T23:00:26.276Z,0.85
2023-03-04T23:03:13.421Z,1.00
2023-03-04T23:06:02.938Z,0.96
2023-03-04T23:08:51.323Z,1.05
2023-03-04T23:11:39.662Z,1.08
2023-03-04T23:14:26.803Z,1.19
2023-03-04T23:17:14.111Z,1.01
2023-03-04T23:20:01.177Z,1.11
2023-03-04T23:22:48.993Z,0.94
2023-03-04T23:25:37.076Z,0.92
2023-03-04T23:28:24.170Z,1.01
2023-03-04T23:31:14.951Z,1.11
2023-03-04T23:34:03.656Z,1.09
2023-03-04T23:36:50.749Z,1.18
2023-03-04T23:39:37.815Z,0.96
2023-03-04T23:42:24.956Z,0.97
2023-03-04T23:45:12.447Z,1.01
2023-03-04T23:47:59.596Z,0.89
2023-03-04T23:50:54.075Z,0.93
2023-03-04T23:53:41.340Z,0.96
2023-03-04T23:56:30.613Z,0.95
2023-03-04T23:59:17.798Z,1.05
